Time;durP1;ratioP1;P1;durP2;ratioP2;P2;SDS_P1;SDS_P2;PMS_P1;PMS_P2;Temp;Humidity;BMP_temperature;BMP_pressure;BME280_temperature;BME280_humidity;BME280_pressure;Samples;Min_cycle;Max_cycle;Signal;HPM_P1;HPM_P2
2022/08/09 00:00:20;;;;;;;49.42;28.55;;;27.40;99.90;;;;;;5105389;28;20055;-63
2022/08/09 00:02:46;;;;;;;51.90;26.25;;;27.40;99.90;;;;;;5105205;28;20063;-64
2022/08/09 00:05:13;;;;;;;43.20;24.98;;;27.40;99.90;;;;;;5099327;28;20030;-64
2022/08/09 00:07:42;;;;;;;45.35;23.63;;;27.40;99.90;;;;;;5098194;28;20063;-64
2022/08/09 00:10:09;;;;;;;43.95;24.65;;;27.40;99.90;;;;;;5097529;28;20016;-64
2022/08/09 00:12:36;;;;;;;43.72;24.73;;;27.50;99.90;;;;;;5103878;28;20454;-64
2022/08/09 00:15:03;;;;;;;41.00;22.90;;;27.50;99.90;;;;;;5099399;28;20016;-63
2022/08/09 00:17:29;;;;;;;42.30;22.55;;;27.50;99.90;;;;;;5105214;28;20056;-63
2022/08/09 00:19:56;;;;;;;31.75;20.40;;;27.50;99.90;;;;;;5103128;28;20027;-64
2022/08/09 00:22:22;;;;;;;33.58;21.30;;;27.60;99.90;;;;;;5108512;28;20472;-64
2022/08/09 00:24:49;;;;;;;35.50;21.52;;;27.50;99.90;;;;;;5115345;28;20027;-66
2022/08/09 00:27:15;;;;;;;36.53;20.98;;;27.50;99.90;;;;;;5105573;28;20020;-65
2022/08/09 00:29:42;;;;;;;46.72;23.13;;;27.60;99.90;;;;;;5103951;28;20027;-66
2022/08/09 00:32:08;;;;;;;33.35;21.67;;;27.70;99.90;;;;;;5097682;28;20034;-66
2022/08/09 00:34:35;;;;;;;43.00;20.83;;;27.70;99.90;;;;;;5095124;28;20019;-65
2022/08/09 00:37:02;;;;;;;42.45;19.98;;;27.70;99.90;;;;;;5095025;28;20024;-65
2022/08/09 00:39:28;;;;;;;35.42;19.13;;;27.80;99.90;;;;;;5094548;28;20036;-65
2022/08/09 00:41:55;;;;;;;35.92;20.02;;;27.80;99.90;;;;;;5094493;28;20020;-65
2022/08/09 00:44:21;;;;;;;31.63;19.35;;;27.80;99.90;;;;;;5094627;28;20507;-65
2022/08/09 00:46:48;;;;;;;32.80;19.10;;;27.80;99.90;;;;;;5094750;28;20024;-66
2022/08/09 00:49:14;;;;;;;43.58;20.88;;;27.90;99.90;;;;;;5094638;28;20016;-66
2022/08/09 00:51:41;;;;;;;40.17;22.02;;;28.00;99.90;;;;;;5094702;28;20028;-66
2022/08/09 00:54:08;;;;;;;35.33;21.20;;;28.10;99.90;;;;;;5094786;28;20066;-66
2022/08/09 00:56:34;;;;;;;38.58;21.70;;;28.10;99.90;;;;;;5095173;28;20363;-66
2022/08/09 00:59:01;;;;;;;33.75;20.42;;;28.20;99.90;;;;;;5094691;28;20119;-66
2022/08/09 01:01:35;;;;;;;46.28;21.45;;;28.30;99.90;;;;;;5094137;28;20120;-64
2022/08/09 01:04:06;;;;;;;37.83;20.85;;;28.40;99.90;;;;;;5094741;28;20020;-65
2022/08/09 01:07:03;;;;;;;33.30;20.25;;;28.50;99.90;;;;;;5094503;28;20028;-64
2022/08/09 01:09:41;;;;;;;32.42;18.83;;;28.50;99.90;;;;;;5094223;28;20118;-64
2022/08/09 01:12:47;;;;;;;36.95;19.02;;;28.60;99.90;;;;;;5092459;28;20028;-64
2022/08/09 01:15:18;;;;;;;29.05;19.33;;;28.50;99.90;;;;;;4992781;28;20473;-64
2022/08/09 01:17:48;;;;;;;36.38;18.00;;;28.60;99.90;;;;;;4992380;28;20050;-64
2022/08/09 01:20:42;;;;;;;36.15;17.90;;;28.70;99.90;;;;;;4992273;28;20034;-64
2022/08/09 01:23:37;;;;;;;33.03;18.08;;;28.70;99.90;;;;;;4971234;28;20039;-64
2022/08/09 01:26:30;;;;;;;27.08;18.40;;;28.70;99.90;;;;;;4978943;28;20038;-64
2022/08/09 01:29:00;;;;;;;34.70;18.30;;;28.80;99.90;;;;;;4976915;28;20027;-65
2022/08/09 01:31:29;;;;;;;34.38;19.20;;;28.90;99.90;;;;;;4972649;28;20046;-65
2022/08/09 01:33:59;;;;;;;31.98;20.58;;;29.00;99.90;;;;;;4972621;28;20098;-64
2022/08/09 01:36:27;;;;;;;28.85;18.90;;;29.10;99.90;;;;;;4972844;28;20027;-64
2022/08/09 01:38:54;;;;;;;29.13;18.83;;;29.10;99.90;;;;;;4972678;28;20256;-65
2022/08/09 01:41:32;;;;;;;25.60;19.63;;;29.20;99.90;;;;;;4972577;28;20071;-64
2022/08/09 01:44:02;;;;;;;29.25;21.30;;;29.30;99.90;;;;;;4972613;28;20074;-64
2022/08/09 01:46:32;;;;;;;46.25;29.52;;;29.30;99.90;;;;;;4989749;28;20121;-64
2022/08/09 01:49:14;;;;;;;33.67;22.35;;;29.40;99.90;;;;;;4992073;28;20034;-64
2022/08/09 01:52:02;;;;;;;;;;;29.50;99.90;;;;;;5030753;28;20032;-64
2022/08/09 01:54:32;;;;;;;29.85;21.17;;;29.50;99.90;;;;;;5091578;28;19981;-64
2022/08/09 01:57:02;;;;;;;36.33;21.70;;;29.60;99.90;;;;;;5093170;28;20028;-63
2022/08/09 01:59:30;;;;;;;33.80;23.33;;;29.60;99.90;;;;;;5093434;28;20020;-64
2022/08/09 02:01:57;;;;;;;31.02;23.05;;;29.70;99.90;;;;;;5093875;28;20470;-64
2022/08/09 02:04:25;;;;;;;29.98;22.73;;;29.80;99.90;;;;;;5093469;28;20039;-65
2022/08/09 02:09:46;;;;;;;33.20;21.10;;;29.90;99.90;;;;;;5093062;28;20040;-65
2022/08/09 02:12:17;;;;;;;37.90;24.20;;;30.00;99.90;;;;;;5093299;28;20039;-64
2022/08/09 02:14:47;;;;;;;31.67;22.33;;;30.00;99.90;;;;;;5093167;28;20024;-64
2022/08/09 02:17:15;;;;;;;39.97;23.20;;;30.00;99.90;;;;;;5093258;28;20123;-64
2022/08/09 02:19:43;;;;;;;35.08;21.42;;;30.00;99.90;;;;;;5093151;28;20028;-64
2022/08/09 02:22:22;;;;;;;33.60;19.65;;;30.10;99.90;;;;;;5093727;28;20111;-63
2022/08/09 02:24:52;;;;;;;35.72;21.75;;;30.10;99.90;;;;;;5093237;28;20051;-63
2022/08/09 02:27:21;;;;;;;31.45;20.85;;;30.10;99.90;;;;;;5093334;28;20035;-65
2022/08/09 02:29:50;;;;;;;26.30;20.33;;;30.20;99.90;;;;;;5093122;28;20020;-65
2022/08/09 02:32:21;;;;;;;24.88;18.98;;;30.30;99.90;;;;;;5093520;28;20016;-64
2022/08/09 02:34:54;;;;;;;30.25;19.23;;;30.30;99.90;;;;;;5093534;28;20017;-64
2022/08/09 02:37:24;;;;;;;27.85;18.95;;;30.40;99.90;;;;;;5093134;28;20027;-63
2022/08/09 02:40:02;;;;;;;31.48;19.58;;;30.40;99.90;;;;;;5093040;28;20025;-64
2022/08/09 02:42:38;;;;;;;25.90;18.80;;;30.40;99.90;;;;;;5093246;28;20047;-64
2022/08/09 02:45:10;;;;;;;22.63;18.08;;;30.50;99.90;;;;;;5093120;28;20099;-63
2022/08/09 02:47:37;;;;;;;;;;;30.60;99.90;;;;;;5093363;28;20024;-64
2022/08/09 02:50:10;;;;;;;30.95;17.00;;;30.50;99.90;;;;;;5093202;28;19904;-64
2022/08/09 02:52:58;;;;;;;27.30;16.25;;;30.60;99.90;;;;;;5093676;28;20028;-64
2022/08/09 02:55:27;;;;;;;27.10;19.38;;;30.70;99.90;;;;;;5093804;28;20051;-65
2022/08/09 02:57:55;;;;;;;26.70;16.95;;;30.70;99.90;;;;;;5093500;28;20036;-63
2022/08/09 03:00:23;;;;;;;25.98;16.63;;;30.70;99.90;;;;;;5092913;28;20482;-64
2022/08/09 03:02:54;;;;;;;25.15;17.67;;;30.80;99.90;;;;;;5091909;28;20036;-63
2022/08/09 03:05:21;;;;;;;24.95;17.10;;;30.80;99.90;;;;;;5091974;28;20024;-63
2022/08/09 03:07:50;;;;;;;28.20;19.63;;;30.80;99.90;;;;;;5095924;28;20031;-66
2022/08/09 03:10:18;;;;;;;28.10;21.30;;;31.00;99.90;;;;;;5095932;28;20478;-68
2022/08/09 03:12:47;;;;;;;34.65;23.67;;;31.00;99.90;;;;;;5095156;28;20490;-69
2022/08/09 03:15:14;;;;;;;37.03;24.17;;;31.10;99.90;;;;;;5089386;28;20028;-69
2022/08/09 03:17:42;;;;;;;31.90;22.42;;;31.20;99.90;;;;;;5082213;28;20036;-67
2022/08/09 03:20:10;;;;;;;23.83;17.95;;;31.20;99.90;;;;;;5094506;28;20028;-66
2022/08/09 03:22:39;;;;;;;20.75;16.58;;;31.20;99.90;;;;;;5095537;28;20414;-67
2022/08/09 03:25:08;;;;;;;27.42;17.45;;;31.20;99.90;;;;;;5095533;28;20462;-66
2022/08/09 03:27:35;;;;;;;21.15;15.40;;;31.20;99.90;;;;;;5095207;28;20028;-66
2022/08/09 03:30:02;;;;;;;24.85;16.08;;;31.30;99.90;;;;;;5095596;28;20020;-67
2022/08/09 03:32:30;;;;;;;24.38;18.98;;;31.40;99.90;;;;;;5095680;28;20074;-66
2022/08/09 03:34:58;;;;;;;34.72;23.27;;;31.50;99.90;;;;;;5088285;28;20020;-65
2022/08/09 03:37:26;;;;;;;21.42;15.07;;;31.50;99.90;;;;;;5084295;28;20036;-64
2022/08/09 03:39:53;;;;;;;24.60;16.13;;;31.70;99.90;;;;;;5077574;28;20021;-65
2022/08/09 03:42:19;;;;;;;25.95;16.02;;;31.70;99.20;;;;;;5083763;28;20025;-66
2022/08/09 03:44:46;;;;;;;22.88;15.45;;;31.60;98.90;;;;;;5086338;28;20028;-67
2022/08/09 03:47:12;;;;;;;21.25;14.85;;;31.60;99.50;;;;;;5075472;28;20016;-66
2022/08/09 03:49:41;;;;;;;27.10;17.45;;;31.60;98.70;;;;;;5094368;28;20455;-68
2022/08/09 03:52:08;;;;;;;36.40;20.42;;;31.70;98.10;;;;;;5095527;28;20024;-65
2022/08/09 03:54:39;;;;;;;30.05;20.25;;;31.80;98.20;;;;;;5087984;28;20016;-65
2022/08/09 03:57:08;;;;;;;22.95;14.98;;;31.90;96.50;;;;;;5084125;28;20020;-66
2022/08/09 03:59:35;;;;;;;19.88;13.95;;;31.90;95.80;;;;;;5103631;28;20047;-64
2022/08/09 04:02:02;;;;;;;19.02;13.80;;;31.90;96.40;;;;;;5105168;28;20423;-64
2022/08/09 04:04:30;;;;;;;20.52;14.05;;;31.90;96.50;;;;;;5103408;28;20035;-64
2022/08/09 04:06:57;;;;;;;22.23;13.25;;;32.00;95.70;;;;;;5103477;28;20032;-64
2022/08/09 04:09:25;;;;;;;15.27;11.82;;;32.00;95.70;;;;;;5104767;28;20107;-64
2022/08/09 04:12:06;;;;;;;21.25;14.95;;;32.00;95.70;;;;;;5103690;28;20016;-62
2022/08/09 04:14:32;;;;;;;20.02;13.40;;;32.00;96.40;;;;;;5101452;28;20020;-64
2022/08/09 04:16:59;;;;;;;15.27;12.00;;;32.00;96.50;;;;;;5101629;28;20035;-65
2022/08/09 04:19:26;;;;;;;15.30;12.45;;;32.00;95.10;;;;;;5099144;28;20031;-64
2022/08/09 04:21:52;;;;;;;20.70;11.23;;;32.10;95.00;;;;;;5103836;28;20447;-65
2022/08/09 04:24:19;;;;;;;16.60;11.43;;;32.20;95.50;;;;;;5102344;28;20462;-63
2022/08/09 04:26:45;;;;;;;15.23;12.52;;;32.20;95.20;;;;;;5099470;28;20426;-64
2022/08/09 04:29:12;;;;;;;19.65;13.18;;;32.30;94.90;;;;;;5104443;28;20467;-64
2022/08/09 04:31:38;;;;;;;19.77;13.43;;;32.20;94.70;;;;;;5102980;28;20034;-62
2022/08/09 04:34:05;;;;;;;26.77;10.98;;;32.30;94.80;;;;;;5105059;28;20015;-64
2022/08/09 04:36:32;;;;;;;15.88;10.52;;;32.40;94.20;;;;;;5102688;28;20068;-65
2022/08/09 04:39:01;;;;;;;22.73;14.20;;;32.50;93.90;;;;;;5108132;28;20496;-64
2022/08/09 04:41:29;;;;;;;17.38;11.70;;;32.60;93.30;;;;;;5114483;28;20035;-63
2022/08/09 04:43:56;;;;;;;18.80;13.18;;;32.60;93.90;;;;;;5114728;28;20112;-64
2022/08/09 04:46:23;;;;;;;14.07;11.35;;;32.60;93.70;;;;;;5114110;28;20055;-63
2022/08/09 04:48:49;;;;;;;16.85;11.13;;;32.60;93.60;;;;;;5114157;28;20035;-65
2022/08/09 04:51:16;;;;;;;17.77;12.20;;;32.60;93.80;;;;;;5099468;28;20546;-65
2022/08/09 04:53:42;;;;;;;19.30;11.63;;;32.70;93.70;;;;;;5105652;28;20107;-65
2022/08/09 04:56:09;;;;;;;22.60;15.05;;;32.80;93.60;;;;;;5105161;28;20023;-65
2022/08/09 04:58:36;;;;;;;20.23;12.35;;;32.70;93.80;;;;;;5104734;28;20028;-65
2022/08/09 05:01:03;;;;;;;22.33;12.90;;;32.90;94.10;;;;;;5105036;28;20024;-65
2022/08/09 05:03:30;;;;;;;17.13;12.82;;;32.90;93.80;;;;;;5104252;28;20106;-65
2022/08/09 05:05:56;;;;;;;12.77;10.95;;;32.90;92.80;;;;;;5095528;28;20382;-65
2022/08/09 05:08:23;;;;;;;17.85;10.90;;;32.80;92.60;;;;;;5091961;28;20032;-64
2022/08/09 05:10:49;;;;;;;19.92;11.63;;;32.70;92.20;;;;;;5097835;28;20015;-65
2022/08/09 05:13:16;;;;;;;17.25;10.45;;;32.80;92.20;;;;;;5112103;28;20054;-65
2022/08/09 05:15:42;;;;;;;14.07;10.90;;;32.80;91.40;;;;;;5092943;28;20099;-64
2022/08/09 05:18:09;;;;;;;17.17;10.43;;;32.90;91.60;;;;;;5076756;28;20376;-65
2022/08/09 05:20:35;;;;;;;20.30;11.38;;;33.00;91.10;;;;;;5101156;28;20074;-65
2022/08/09 05:23:02;;;;;;;18.45;10.88;;;33.00;91.20;;;;;;5102677;28;20162;-66
2022/08/09 05:25:28;;;;;;;14.85;9.98;;;33.10;91.60;;;;;;5082674;28;20272;-65
2022/08/09 05:27:56;;;;;;;11.75;9.63;;;33.10;90.10;;;;;;5102043;28;20444;-65
2022/08/09 05:30:22;;;;;;;15.93;11.05;;;33.20;90.40;;;;;;5099712;28;20023;-66
2022/08/09 05:32:49;;;;;;;15.75;9.80;;;33.20;90.60;;;;;;5101653;28;20015;-66
2022/08/09 05:35:16;;;;;;;13.65;10.38;;;33.30;91.50;;;;;;5099891;28;20026;-66
2022/08/09 05:37:42;;;;;;;18.02;11.90;;;33.30;90.40;;;;;;5100761;28;20034;-66
2022/08/09 05:40:09;;;;;;;24.92;13.05;;;33.30;90.50;;;;;;5099301;28;20039;-66
2022/08/09 05:42:36;;;;;;;19.98;12.27;;;33.40;89.50;;;;;;5096904;28;20036;-66
2022/08/09 05:45:03;;;;;;;13.57;10.13;;;33.40;90.60;;;;;;5100646;28;20024;-66
2022/08/09 05:47:30;;;;;;;23.83;10.73;;;33.40;88.40;;;;;;5101612;28;20116;-66
2022/08/09 05:49:56;;;;;;;17.83;12.07;;;33.40;90.50;;;;;;5102009;28;21132;-67
2022/08/09 05:52:23;;;;;;;16.48;11.00;;;33.50;91.10;;;;;;5094598;28;20501;-66
2022/08/09 05:54:50;;;;;;;12.93;10.32;;;33.50;88.50;;;;;;5110550;28;20102;-66
2022/08/09 05:57:17;;;;;;;21.23;11.80;;;33.40;90.10;;;;;;5103682;28;20088;-65
2022/08/09 05:59:43;;;;;;;17.13;11.25;;;33.50;90.50;;;;;;5098419;28;20042;-66
2022/08/09 06:02:10;;;;;;;17.15;10.75;;;33.40;89.70;;;;;;5092438;28;20030;-66
2022/08/09 06:04:36;;;;;;;16.98;12.48;;;33.30;90.00;;;;;;5103398;28;20084;-66
2022/08/09 06:07:03;;;;;;;20.35;12.13;;;33.30;90.50;;;;;;5098999;28;20019;-66
2022/08/09 06:09:30;;;;;;;20.42;13.23;;;33.40;90.20;;;;;;5102484;28;20027;-67
2022/08/09 06:11:56;;;;;;;19.40;14.15;;;33.50;89.10;;;;;;5094222;28;20055;-66
2022/08/09 06:14:23;;;;;;;19.95;11.95;;;33.60;89.00;;;;;;5072685;28;20023;-66
2022/08/09 06:16:49;;;;;;;15.57;11.07;;;33.60;88.70;;;;;;5084623;28;20056;-66
2022/08/09 06:19:16;;;;;;;16.80;11.68;;;33.80;88.30;;;;;;5090112;28;20043;-63
2022/08/09 06:21:43;;;;;;;14.32;10.13;;;33.80;90.00;;;;;;5096993;28;20027;-62
2022/08/09 06:24:10;;;;;;;13.32;11.13;;;33.80;86.90;;;;;;5101380;28;20016;-64
2022/08/09 06:26:40;;;;;;;17.27;10.75;;;33.70;87.60;;;;;;5094822;28;20398;-63
2022/08/09 06:29:08;;;;;;;13.18;11.30;;;33.70;86.40;;;;;;5104106;28;20469;-64
2022/08/09 06:31:36;;;;;;;14.95;12.30;;;33.60;87.50;;;;;;5091144;28;20024;-65
2022/08/09 06:34:03;;;;;;;12.88;10.85;;;33.40;86.70;;;;;;5091512;28;20016;-67
2022/08/09 06:36:30;;;;;;;18.67;11.63;;;33.40;84.70;;;;;;5091353;28;20016;-67
2022/08/09 06:38:57;;;;;;;12.98;11.00;;;33.40;86.40;;;;;;5092603;28;20022;-68
2022/08/09 06:41:24;;;;;;;14.45;12.50;;;33.40;87.40;;;;;;5094637;28;20058;-68
2022/08/09 06:43:51;;;;;;;14.98;12.07;;;33.40;87.00;;;;;;5096775;28;20085;-68
2022/08/09 06:46:17;;;;;;;14.20;11.73;;;33.30;88.60;;;;;;5096572;28;20063;-68
2022/08/09 06:48:44;;;;;;;14.23;11.45;;;33.30;86.40;;;;;;5096283;28;20024;-68
2022/08/09 06:51:11;;;;;;;16.90;10.73;;;33.20;86.60;;;;;;5096740;28;20095;-70
2022/08/09 06:53:38;;;;;;;12.02;10.73;;;33.10;86.20;;;;;;5096542;28;20099;-67
2022/08/09 06:56:08;;;;;;;14.40;11.15;;;33.10;87.80;;;;;;5096504;28;20424;-68
2022/08/09 06:58:34;;;;;;;15.18;11.18;;;33.30;87.80;;;;;;5096597;28;20084;-68
2022/08/09 07:01:01;;;;;;;16.23;11.05;;;33.50;83.80;;;;;;5096542;28;20020;-68
2022/08/09 07:03:28;;;;;;;17.90;11.25;;;33.70;84.40;;;;;;5096217;28;20513;-68
2022/08/09 07:05:55;;;;;;;15.43;10.90;;;33.80;83.70;;;;;;5096361;28;20032;-68
2022/08/09 07:08:21;;;;;;;15.10;10.25;;;33.90;83.50;;;;;;5096308;28;20024;-68
2022/08/09 07:10:48;;;;;;;13.27;11.00;;;34.00;84.40;;;;;;5096170;28;20038;-68
2022/08/09 07:13:14;;;;;;;17.33;11.98;;;34.00;84.10;;;;;;5096267;28;20493;-68
2022/08/09 07:15:41;;;;;;;17.05;11.60;;;34.00;85.20;;;;;;5096105;28;20532;-68
2022/08/09 07:18:07;;;;;;;13.80;10.73;;;33.80;84.30;;;;;;5095852;28;20501;-68
2022/08/09 07:20:34;;;;;;;16.33;9.95;;;33.90;82.70;;;;;;5096033;28;20062;-68
2022/08/09 07:23:01;;;;;;;16.60;10.52;;;33.90;83.20;;;;;;5113631;28;20028;-68
2022/08/09 07:25:27;;;;;;;16.90;11.10;;;34.10;82.70;;;;;;5116108;28;20035;-68
2022/08/09 07:27:54;;;;;;;16.85;9.85;;;34.00;84.10;;;;;;5100541;28;20036;-68
2022/08/09 07:30:21;;;;;;;14.43;10.20;;;33.90;81.70;;;;;;5095930;28;20437;-68
2022/08/09 07:32:48;;;;;;;12.13;9.98;;;33.80;81.90;;;;;;5095597;28;20022;-68
2022/08/09 07:35:15;;;;;;;15.85;11.60;;;33.60;83.60;;;;;;5095537;28;20024;-67
2022/08/09 07:37:44;;;;;;;15.40;10.55;;;33.50;82.40;;;;;;5095739;28;20024;-68
2022/08/09 07:40:12;;;;;;;14.38;10.00;;;33.50;82.10;;;;;;5095520;28;20387;-68
2022/08/09 07:42:53;;;;;;;17.42;12.43;;;33.40;81.90;;;;;;5095789;28;20415;-67
2022/08/09 07:45:24;;;;;;;21.67;15.43;;;33.20;83.20;;;;;;5095554;28;20165;-68
2022/08/09 07:47:55;;;;;;;26.80;18.13;;;33.20;84.00;;;;;;5095415;28;20107;-68
2022/08/09 07:50:23;;;;;;;24.85;15.27;;;33.10;82.90;;;;;;5095373;28;20024;-68
2022/08/09 07:52:49;;;;;;;18.30;12.32;;;33.10;83.70;;;;;;5095097;28;20016;-68
2022/08/09 07:55:17;;;;;;;15.93;11.65;;;33.10;83.40;;;;;;5095352;28;20103;-68
2022/08/09 07:57:47;;;;;;;15.57;11.48;;;33.10;82.10;;;;;;5095373;28;20016;-68
2022/08/09 08:00:16;;;;;;;12.68;11.05;;;33.30;84.20;;;;;;5094762;28;20028;-68
2022/08/09 08:02:43;;;;;;;16.55;10.65;;;33.40;83.70;;;;;;5094409;28;20024;-67
2022/08/09 08:05:10;;;;;;;17.75;13.27;;;33.60;83.40;;;;;;5091443;28;20052;-67
2022/08/09 08:07:36;;;;;;;18.80;11.73;;;33.80;81.80;;;;;;5079566;28;20470;-67
2022/08/09 08:10:05;;;;;;;17.92;12.65;;;33.80;81.20;;;;;;5073516;28;20017;-67
2022/08/09 08:12:32;;;;;;;20.33;14.23;;;33.60;80.80;;;;;;5073558;28;20143;-68
2022/08/09 08:14:59;;;;;;;23.45;16.67;;;33.60;81.40;;;;;;5076689;28;20486;-66
2022/08/09 08:17:25;;;;;;;30.85;18.98;;;33.50;80.60;;;;;;5083979;28;20522;-67
2022/08/09 08:19:52;;;;;;;22.23;15.63;;;33.50;80.20;;;;;;5075620;28;20020;-67
2022/08/09 08:22:18;;;;;;;18.75;12.15;;;33.70;80.00;;;;;;5089527;28;20019;-64
2022/08/09 08:24:46;;;;;;;17.48;11.63;;;33.70;79.40;;;;;;5094367;28;20047;-65
2022/08/09 08:27:12;;;;;;;16.08;11.38;;;33.60;80.00;;;;;;5105009;28;20067;-66
2022/08/09 08:29:39;;;;;;;19.30;11.70;;;33.60;79.70;;;;;;5096873;28;20131;-65
2022/08/09 08:32:06;;;;;;;17.05;11.25;;;33.50;81.80;;;;;;5097337;28;20089;-70
2022/08/09 08:34:33;;;;;;;17.10;11.50;;;33.40;80.50;;;;;;5101974;28;20024;-67
2022/08/09 08:36:59;;;;;;;28.00;18.80;;;33.40;79.70;;;;;;5102587;28;20437;-67
2022/08/09 08:39:26;;;;;;;21.15;13.23;;;33.30;81.20;;;;;;5101786;28;20023;-66
2022/08/09 08:41:53;;;;;;;22.38;12.65;;;33.40;79.40;;;;;;5094881;28;20048;-66
2022/08/09 08:44:21;;;;;;;13.90;12.00;;;33.50;79.10;;;;;;5102188;28;20510;-66
2022/08/09 08:46:49;;;;;;;20.75;12.77;;;33.60;79.70;;;;;;5103589;28;20027;-67
2022/08/09 08:49:15;;;;;;;16.35;11.80;;;33.50;79.90;;;;;;5099024;28;20027;-66
2022/08/09 08:51:42;;;;;;;16.27;11.73;;;33.60;80.30;;;;;;5095961;28;20086;-65
2022/08/09 08:54:10;;;;;;;16.58;11.55;;;33.60;80.20;;;;;;5097725;28;20446;-65
2022/08/09 08:56:38;;;;;;;15.10;12.32;;;33.60;80.40;;;;;;5096612;28;20036;-65
2022/08/09 08:59:11;;;;;;;16.30;12.63;;;33.70;81.50;;;;;;5097383;28;20023;-66
2022/08/09 09:01:41;;;;;;;16.20;13.30;;;33.70;80.50;;;;;;5096343;28;20030;-66
2022/08/09 09:04:11;;;;;;;22.52;14.77;;;33.60;79.50;;;;;;5095198;28;20016;-66
2022/08/09 09:06:40;;;;;;;16.80;13.43;;;33.60;80.10;;;;;;5098099;28;20019;-66
2022/08/09 09:09:08;;;;;;;20.92;13.75;;;33.60;78.30;;;;;;5099527;28;20054;-65
2022/08/09 09:11:35;;;;;;;19.90;15.27;;;33.60;78.90;;;;;;5102479;28;20024;-65
2022/08/09 09:14:29;;;;;;;31.05;22.15;;;33.50;77.20;;;;;;5099570;28;20035;-65
2022/08/09 09:16:57;;;;;;;35.03;22.55;;;33.40;77.30;;;;;;5100816;28;20477;-65
2022/08/09 09:19:23;;;;;;;36.35;23.98;;;33.30;76.30;;;;;;5097843;28;20030;-66
2022/08/09 09:22:01;;;;;;;26.00;19.55;;;33.30;77.20;;;;;;5101119;28;20098;-65
2022/08/09 09:24:30;;;;;;;32.75;19.48;;;33.20;78.50;;;;;;5099322;28;20024;-65
2022/08/09 09:26:58;;;;;;;28.65;19.83;;;33.20;79.00;;;;;;5097806;28;20095;-67
2022/08/09 09:29:29;;;;;;;21.10;16.83;;;33.20;79.40;;;;;;5098398;28;20124;-66
2022/08/09 09:31:56;;;;;;;29.42;22.25;;;33.10;78.90;;;;;;5100933;28;20024;-66
2022/08/09 09:34:22;;;;;;;42.75;27.90;;;33.10;79.10;;;;;;5093168;28;20077;-64
2022/08/09 09:36:49;;;;;;;46.45;29.42;;;33.10;79.80;;;;;;5084217;28;20474;-66
2022/08/09 09:39:17;;;;;;;45.00;27.35;;;33.10;79.70;;;;;;5098661;28;20067;-65
2022/08/09 09:41:44;;;;;;;40.65;26.15;;;33.10;79.60;;;;;;5096378;28;20062;-65
2022/08/09 09:44:12;;;;;;;39.67;25.35;;;33.10;79.70;;;;;;5094431;28;20016;-64
2022/08/09 09:46:41;;;;;;;42.67;26.10;;;33.20;80.40;;;;;;5100512;28;20031;-66
2022/08/09 09:49:10;;;;;;;25.40;19.17;;;33.10;79.60;;;;;;5093961;28;20028;-66
2022/08/09 09:51:38;;;;;;;27.00;21.80;;;33.00;79.10;;;;;;5101431;28;20031;-66
2022/08/09 09:54:10;;;;;;;24.85;16.83;;;33.00;80.00;;;;;;5092990;28;20046;-66
2022/08/09 09:56:39;;;;;;;23.27;18.53;;;33.00;79.10;;;;;;5090533;28;20019;-66
2022/08/09 09:59:08;;;;;;;22.95;18.92;;;32.90;79.50;;;;;;5096613;28;20326;-66
2022/08/09 10:01:36;;;;;;;25.65;18.88;;;32.90;79.40;;;;;;5098150;28;20031;-66
2022/08/09 10:04:03;;;;;;;89.85;57.42;;;32.90;79.80;;;;;;5095865;28;20024;-65
2022/08/09 10:06:40;;;;;;;97.22;62.60;;;32.80;80.10;;;;;;5102136;28;20035;-65
2022/08/09 10:09:07;;;;;;;240.30;151.90;;;32.80;79.80;;;;;;5091859;28;20440;-66
2022/08/09 10:11:35;;;;;;;227.40;141.45;;;32.80;79.80;;;;;;5093455;28;20038;-66
2022/08/09 10:14:02;;;;;;;221.55;116.95;;;32.80;80.40;;;;;;5075035;28;20111;-66
2022/08/09 10:16:32;;;;;;;184.13;98.40;;;32.80;81.50;;;;;;5095871;28;20036;-65
2022/08/09 10:19:00;;;;;;;213.77;99.25;;;32.80;81.20;;;;;;5096432;28;20035;-67
2022/08/09 10:21:29;;;;;;;75.53;40.95;;;32.80;80.70;;;;;;5102898;28;20335;-65
2022/08/09 10:24:00;;;;;;;186.43;86.35;;;32.70;80.70;;;;;;5096444;28;20012;-65
2022/08/09 10:26:27;;;;;;;84.47;39.50;;;32.70;81.80;;;;;;5097438;28;20452;-66
2022/08/09 10:28:55;;;;;;;57.35;33.88;;;32.60;82.70;;;;;;5096540;28;20027;-65
2022/08/09 10:31:22;;;;;;;52.95;26.48;;;32.60;83.30;;;;;;5103194;28;20373;-65
2022/08/09 10:33:49;;;;;;;69.22;36.35;;;32.60;82.30;;;;;;5108064;28;20577;-65
2022/08/09 10:36:16;;;;;;;229.13;95.05;;;32.50;83.20;;;;;;5098656;28;20017;-64
2022/08/09 10:38:45;;;;;;;153.18;70.05;;;32.60;83.80;;;;;;5104439;28;20060;-65
2022/08/09 10:41:15;;;;;;;113.63;54.13;;;32.50;84.00;;;;;;5099179;28;20389;-65
2022/08/09 10:43:45;;;;;;;148.57;69.63;;;32.50;84.00;;;;;;5096201;28;20028;-65
2022/08/09 10:46:15;;;;;;;78.07;44.08;;;32.50;84.40;;;;;;5093263;28;20055;-66
2022/08/09 10:48:52;;;;;;;94.75;49.35;;;32.40;85.00;;;;;;5090513;28;20044;-65
2022/08/09 10:51:33;;;;;;;96.95;48.08;;;32.40;84.40;;;;;;5097203;28;20024;-66
2022/08/09 10:54:05;;;;;;;229.40;156.85;;;32.40;85.30;;;;;;5105790;28;20054;-65
2022/08/09 10:56:34;;;;;;;163.68;100.25;;;32.30;85.60;;;;;;5095211;28;20106;-66
2022/08/09 10:59:22;;;;;;;465.65;304.60;;;32.30;85.80;;;;;;5099410;28;20044;-66
2022/08/09 11:01:50;;;;;;;496.42;294.10;;;32.20;86.00;;;;;;5104200;28;20024;-66
2022/08/09 11:04:20;;;;;;;328.73;184.75;;;32.10;87.90;;;;;;5097539;28;20021;-66
2022/08/09 11:07:09;;;;;;;505.45;284.88;;;32.10;87.10;;;;;;5084545;28;20458;-66
2022/08/09 11:09:37;;;;;;;251.23;119.88;;;32.20;87.40;;;;;;5089713;28;20039;-67
2022/08/09 11:12:25;;;;;;;298.10;146.93;;;32.10;87.00;;;;;;5095937;28;20043;-66
2022/08/09 11:14:54;;;;;;;140.38;70.38;;;32.00;86.30;;;;;;5089261;28;20142;-65
2022/08/09 11:17:20;;;;;;;321.00;161.75;;;31.90;86.50;;;;;;5080657;28;20132;-65
2022/08/09 11:19:50;;;;;;;210.73;100.65;;;31.80;87.00;;;;;;5080671;28;20029;-65
2022/08/09 11:22:17;;;;;;;207.35;91.80;;;31.80;88.30;;;;;;5081103;28;20125;-66
2022/08/09 11:25:03;;;;;;;238.77;104.88;;;31.80;87.70;;;;;;5083086;28;20024;-64
2022/08/09 11:27:41;;;;;;;210.80;85.90;;;31.80;88.30;;;;;;5102129;28;20039;-66
2022/08/09 11:30:11;;;;;;;304.23;129.05;;;31.70;88.80;;;;;;5099028;28;20030;-64
2022/08/09 11:32:39;;;;;;;495.77;237.57;;;31.70;89.30;;;;;;5104831;28;20196;-65
2022/08/09 11:35:20;;;;;;;219.40;102.07;;;31.70;90.00;;;;;;5098301;28;20020;-65
2022/08/09 11:37:50;;;;;;;453.55;229.68;;;31.60;90.10;;;;;;5102100;28;20016;-65
2022/08/09 11:40:29;;;;;;;333.00;167.95;;;31.70;90.30;;;;;;5100860;28;20051;-64
2022/08/09 11:42:59;;;;;;;210.98;110.25;;;31.60;90.40;;;;;;5104267;28;20016;-65
2022/08/09 11:45:29;;;;;;;401.05;186.38;;;31.50;90.60;;;;;;5097866;28;20099;-64
2022/08/09 11:47:59;;;;;;;378.75;181.48;;;31.50;90.70;;;;;;5109050;28;20500;-64
2022/08/09 11:50:27;;;;;;;421.42;206.85;;;31.40;91.00;;;;;;5088931;28;20389;-66
2022/08/09 11:52:58;;;;;;;147.93;68.65;;;31.40;91.10;;;;;;5105436;28;20016;-66
2022/08/09 11:55:45;;;;;;;142.20;71.05;;;31.30;91.40;;;;;;5097047;28;20027;-65
2022/08/09 11:58:12;;;;;;;183.10;83.10;;;31.20;91.40;;;;;;5103755;28;20040;-66
2022/08/09 12:00:50;;;;;;;239.85;105.43;;;31.20;91.80;;;;;;5102239;28;20116;-65
2022/08/09 12:03:18;;;;;;;208.32;92.45;;;31.20;92.00;;;;;;5103193;28;20017;-65
2022/08/09 12:05:46;;;;;;;232.40;102.65;;;31.10;91.90;;;;;;5095041;28;20031;-65
2022/08/09 12:08:14;;;;;;;138.65;63.67;;;31.10;92.10;;;;;;5090669;28;20449;-67
2022/08/09 12:10:46;;;;;;;123.20;55.70;;;31.10;92.20;;;;;;5083082;28;20027;-67
2022/08/09 12:13:26;;;;;;;;;;;31.00;92.80;;;;;;5075410;28;20024;-64
2022/08/09 12:16:02;;;;;;;155.38;70.63;;;31.00;92.80;;;;;;5074761;28;19995;-66
2022/08/09 12:18:29;;;;;;;99.68;46.88;;;30.90;93.30;;;;;;5074819;28;20414;-66
2022/08/09 12:20:57;;;;;;;153.00;63.45;;;30.90;93.50;;;;;;5074906;28;20024;-66
2022/08/09 12:23:23;;;;;;;206.32;84.07;;;31.00;93.70;;;;;;5074826;28;20082;-66
2022/08/09 12:25:53;;;;;;;162.73;72.07;;;30.90;94.00;;;;;;5074784;28;20025;-67
2022/08/09 12:28:22;;;;;;;161.70;69.22;;;30.80;94.20;;;;;;5074567;28;20025;-65
2022/08/09 12:30:50;;;;;;;186.73;90.78;;;30.80;94.70;;;;;;5074616;28;20059;-67
2022/08/09 12:33:18;;;;;;;119.15;62.10;;;30.70;94.90;;;;;;5074607;28;20497;-66
2022/08/09 12:35:45;;;;;;;72.32;40.08;;;30.70;95.10;;;;;;5074592;28;20090;-66
2022/08/09 12:38:30;;;;;;;96.60;48.53;;;30.70;94.70;;;;;;5073416;28;20028;-66